Arcola, Pennsylvania
Current Conditions -  °F | °C
As of 7:54 PM on Friday 24 Oct 2014 (Local Time) from KPTW Reporting Station
Clear Clear  
Wind Chill: 60°   Ceiling: Unl
Heat Index: 60°   Visibility: 10mi
Dew Point: 36°   Wind: 3mph
Humidity: 41%   Direction: 290°WNW
Pressure: 29.87"   Gusts: NA
Location:  40.15°N, 75.46°W
Report Text: KPTW 242354Z AUTO 29003KT 10SM CLR 16/02 A2987 RMK AO2 SLP112 T01560022 10200 20156 51017
Loading
Personal Weather Stations






























Interactive Weather Map
Tropical Storm Tracking
New forecast layout! Learn more

10-Day Weather Forecast

Advertisements
Track Severe Weather on mobile